sensor_id;sensor_type;location;lat;lon;timestamp;P1;durP1;ratioP1;P2;durP2;ratioP2
31978;SDS011;18502;43.574;1.276;2022-11-03T07:10:49;8.75;;;3.15;;
31978;SDS011;18502;43.574;1.276;2022-11-03T07:13:22;7.30;;;3.15;;
31978;SDS011;18502;43.574;1.276;2022-11-03T07:15:49;7.18;;;2.85;;
31978;SDS011;18502;43.574;1.276;2022-11-03T07:18:23;10.32;;;3.55;;
31978;SDS011;18502;43.574;1.276;2022-11-03T07:20:52;19.13;;;4.95;;
31978;SDS011;18502;43.574;1.276;2022-11-03T07:23:21;7.40;;;2.72;;
31978;SDS011;18502;43.574;1.276;2022-11-03T07:25:52;14.20;;;4.10;;
31978;SDS011;18502;43.574;1.276;2022-11-03T07:28:22;10.50;;;3.67;;
31978;SDS011;18502;43.574;1.276;2022-11-03T07:30:50;8.57;;;3.22;;
31978;SDS011;18502;43.574;1.276;2022-11-03T07:33:23;11.23;;;3.42;;
31978;SDS011;18502;43.574;1.276;2022-11-03T07:35:51;9.07;;;3.42;;
31978;SDS011;18502;43.574;1.276;2022-11-03T07:38:20;5.90;;;2.97;;
31978;SDS011;18502;43.574;1.276;2022-11-03T07:40:47;8.57;;;3.30;;
31978;SDS011;18502;43.574;1.276;2022-11-03T07:43:14;12.40;;;2.85;;
31978;SDS011;18502;43.574;1.276;2022-11-03T07:45:53;7.30;;;3.40;;
31978;SDS011;18502;43.574;1.276;2022-11-03T07:53:43;9.15;;;3.67;;
31978;SDS011;18502;43.574;1.276;2022-11-03T07:56:21;6.17;;;3.13;;
31978;SDS011;18502;43.574;1.276;2022-11-03T07:58:50;11.43;;;4.25;;
31978;SDS011;18502;43.574;1.276;2022-11-03T08:01:24;7.88;;;3.60;;
31978;SDS011;18502;43.574;1.276;2022-11-03T08:04:05;7.75;;;3.72;;
31978;SDS011;18502;43.574;1.276;2022-11-03T08:06:34;16.00;;;4.00;;
31978;SDS011;18502;43.574;1.276;2022-11-03T08:08:59;12.32;;;3.70;;
31978;SDS011;18502;43.574;1.276;2022-11-03T08:11:25;13.77;;;4.40;;
31978;SDS011;18502;43.574;1.276;2022-11-03T08:13:51;8.45;;;3.17;;
31978;SDS011;18502;43.574;1.276;2022-11-03T08:16:17;10.13;;;3.20;;
31978;SDS011;18502;43.574;1.276;2022-11-03T08:18:44;14.18;;;2.95;;
31978;SDS011;18502;43.574;1.276;2022-11-03T08:21:10;8.05;;;2.97;;
31978;SDS011;18502;43.574;1.276;2022-11-03T08:23:36;10.52;;;3.60;;
31978;SDS011;18502;43.574;1.276;2022-11-03T08:26:02;12.18;;;3.70;;
31978;SDS011;18502;43.574;1.276;2022-11-03T08:28:28;10.40;;;3.80;;
31978;SDS011;18502;43.574;1.276;2022-11-03T08:30:54;12.10;;;3.78;;
31978;SDS011;18502;43.574;1.276;2022-11-03T08:33:25;8.95;;;4.03;;
31978;SDS011;18502;43.574;1.276;2022-11-03T08:35:51;10.85;;;3.67;;
31978;SDS011;18502;43.574;1.276;2022-11-03T08:38:17;9.30;;;3.85;;
31978;SDS011;18502;43.574;1.276;2022-11-03T08:40:43;6.93;;;3.75;;
31978;SDS011;18502;43.574;1.276;2022-11-03T08:43:08;7.97;;;3.50;;
31978;SDS011;18502;43.574;1.276;2022-11-03T08:45:34;12.23;;;4.18;;
31978;SDS011;18502;43.574;1.276;2022-11-03T08:47:59;13.23;;;4.95;;
31978;SDS011;18502;43.574;1.276;2022-11-03T08:50:25;14.32;;;3.92;;
31978;SDS011;18502;43.574;1.276;2022-11-03T08:52:51;10.82;;;3.67;;
31978;SDS011;18502;43.574;1.276;2022-11-03T08:55:16;7.47;;;3.88;;
31978;SDS011;18502;43.574;1.276;2022-11-03T08:57:42;11.75;;;3.53;;
31978;SDS011;18502;43.574;1.276;2022-11-03T09:00:08;8.02;;;3.50;;
31978;SDS011;18502;43.574;1.276;2022-11-03T09:02:34;10.10;;;4.13;;
31978;SDS011;18502;43.574;1.276;2022-11-03T09:05:00;8.25;;;3.88;;
31978;SDS011;18502;43.574;1.276;2022-11-03T09:07:26;9.50;;;3.67;;
31978;SDS011;18502;43.574;1.276;2022-11-03T09:09:51;11.68;;;4.28;;
31978;SDS011;18502;43.574;1.276;2022-11-03T09:12:17;14.13;;;4.03;;
31978;SDS011;18502;43.574;1.276;2022-11-03T09:14:43;13.57;;;4.15;;
31978;SDS011;18502;43.574;1.276;2022-11-03T09:17:09;9.43;;;3.75;;
31978;SDS011;18502;43.574;1.276;2022-11-03T09:19:34;11.07;;;4.20;;
31978;SDS011;18502;43.574;1.276;2022-11-03T09:22:00;14.82;;;4.10;;
31978;SDS011;18502;43.574;1.276;2022-11-03T09:24:25;12.23;;;6.10;;
31978;SDS011;18502;43.574;1.276;2022-11-03T09:26:51;17.83;;;9.38;;
31978;SDS011;18502;43.574;1.276;2022-11-03T09:29:17;21.25;;;9.88;;
31978;SDS011;18502;43.574;1.276;2022-11-03T09:31:43;16.08;;;8.57;;
31978;SDS011;18502;43.574;1.276;2022-11-03T09:34:09;11.32;;;5.57;;
31978;SDS011;18502;43.574;1.276;2022-11-03T09:36:34;10.55;;;4.82;;
31978;SDS011;18502;43.574;1.276;2022-11-03T09:39:00;13.63;;;4.57;;
31978;SDS011;18502;43.574;1.276;2022-11-03T09:41:25;8.02;;;3.70;;
31978;SDS011;18502;43.574;1.276;2022-11-03T09:43:51;14.43;;;3.88;;
31978;SDS011;18502;43.574;1.276;2022-11-03T09:46:18;10.60;;;4.40;;
31978;SDS011;18502;43.574;1.276;2022-11-03T09:48:44;12.13;;;4.25;;
31978;SDS011;18502;43.574;1.276;2022-11-03T09:51:12;11.25;;;4.93;;
31978;SDS011;18502;43.574;1.276;2022-11-03T09:53:41;13.00;;;4.47;;
31978;SDS011;18502;43.574;1.276;2022-11-03T09:56:08;6.93;;;3.85;;
31978;SDS011;18502;43.574;1.276;2022-11-03T09:58:34;8.77;;;4.38;;
31978;SDS011;18502;43.574;1.276;2022-11-03T10:01:00;9.45;;;4.05;;
31978;SDS011;18502;43.574;1.276;2022-11-03T10:03:27;6.57;;;3.60;;
31978;SDS011;18502;43.574;1.276;2022-11-03T10:05:53;9.23;;;4.05;;
31978;SDS011;18502;43.574;1.276;2022-11-03T10:10:48;8.52;;;3.58;;
31978;SDS011;18502;43.574;1.276;2022-11-03T10:13:16;8.20;;;3.13;;
31978;SDS011;18502;43.574;1.276;2022-11-03T10:15:49;8.05;;;3.88;;
31978;SDS011;18502;43.574;1.276;2022-11-03T10:18:14;16.60;;;4.20;;
31978;SDS011;18502;43.574;1.276;2022-11-03T10:20:42;7.30;;;3.83;;
31978;SDS011;18502;43.574;1.276;2022-11-03T10:23:09;11.07;;;3.92;;
31978;SDS011;18502;43.574;1.276;2022-11-03T10:28:17;8.82;;;3.72;;
31978;SDS011;18502;43.574;1.276;2022-11-03T10:30:47;6.10;;;3.63;;
31978;SDS011;18502;43.574;1.276;2022-11-03T10:35:55;8.68;;;3.75;;
31978;SDS011;18502;43.574;1.276;2022-11-03T10:41:17;11.07;;;4.18;;
31978;SDS011;18502;43.574;1.276;2022-11-03T10:46:36;12.85;;;3.63;;
31978;SDS011;18502;43.574;1.276;2022-11-03T10:49:14;10.02;;;3.63;;
31978;SDS011;18502;43.574;1.276;2022-11-03T10:51:42;11.82;;;5.25;;
31978;SDS011;18502;43.574;1.276;2022-11-03T10:54:12;8.80;;;4.18;;
31978;SDS011;18502;43.574;1.276;2022-11-03T10:56:40;10.25;;;3.90;;
31978;SDS011;18502;43.574;1.276;2022-11-03T10:59:13;9.40;;;4.22;;
31978;SDS011;18502;43.574;1.276;2022-11-03T11:01:43;10.93;;;3.72;;
31978;SDS011;18502;43.574;1.276;2022-11-03T11:04:10;9.75;;;3.97;;
31978;SDS011;18502;43.574;1.276;2022-11-03T11:06:40;7.13;;;4.13;;
31978;SDS011;18502;43.574;1.276;2022-11-03T11:09:08;8.07;;;4.00;;
31978;SDS011;18502;43.574;1.276;2022-11-03T11:11:36;7.22;;;3.75;;
31978;SDS011;18502;43.574;1.276;2022-11-03T11:14:19;10.18;;;3.50;;
31978;SDS011;18502;43.574;1.276;2022-11-03T11:16:54;8.68;;;4.40;;
31978;SDS011;18502;43.574;1.276;2022-11-03T11:19:24;9.35;;;4.05;;
31978;SDS011;18502;43.574;1.276;2022-11-03T11:25:00;7.13;;;4.10;;
31978;SDS011;18502;43.574;1.276;2022-11-03T11:29:55;11.75;;;4.55;;
31978;SDS011;18502;43.574;1.276;2022-11-03T11:35:03;10.23;;;3.47;;
31978;SDS011;18502;43.574;1.276;2022-11-03T11:37:33;8.10;;;4.28;;
31978;SDS011;18502;43.574;1.276;2022-11-03T11:40:00;13.40;;;4.55;;
31978;SDS011;18502;43.574;1.276;2022-11-03T11:42:27;10.07;;;3.83;;
31978;SDS011;18502;43.574;1.276;2022-11-03T11:44:54;12.40;;;4.47;;
31978;SDS011;18502;43.574;1.276;2022-11-03T11:52:41;9.75;;;3.63;;
31978;SDS011;18502;43.574;1.276;2022-11-03T11:55:21;10.05;;;4.72;;
31978;SDS011;18502;43.574;1.276;2022-11-03T11:57:52;16.40;;;4.45;;
31978;SDS011;18502;43.574;1.276;2022-11-03T12:02:51;10.10;;;4.00;;
31978;SDS011;18502;43.574;1.276;2022-11-03T12:05:22;11.60;;;4.25;;
31978;SDS011;18502;43.574;1.276;2022-11-03T12:07:51;8.63;;;4.07;;
31978;SDS011;18502;43.574;1.276;2022-11-03T12:10:19;9.60;;;4.30;;
31978;SDS011;18502;43.574;1.276;2022-11-03T12:12:55;11.15;;;4.40;;
31978;SDS011;18502;43.574;1.276;2022-11-03T12:18:37;6.45;;;3.55;;
31978;SDS011;18502;43.574;1.276;2022-11-03T12:21:04;10.68;;;4.68;;
31978;SDS011;18502;43.574;1.276;2022-11-03T12:23:41;6.95;;;3.40;;
31978;SDS011;18502;43.574;1.276;2022-11-03T12:26:15;8.98;;;3.80;;
31978;SDS011;18502;43.574;1.276;2022-11-03T12:28:41;7.38;;;3.50;;
31978;SDS011;18502;43.574;1.276;2022-11-03T12:31:07;9.65;;;3.40;;
31978;SDS011;18502;43.574;1.276;2022-11-03T12:33:33;11.43;;;4.22;;
31978;SDS011;18502;43.574;1.276;2022-11-03T12:35:59;8.43;;;3.72;;
31978;SDS011;18502;43.574;1.276;2022-11-03T12:38:25;11.40;;;4.13;;
31978;SDS011;18502;43.574;1.276;2022-11-03T12:40:50;10.32;;;3.60;;
31978;SDS011;18502;43.574;1.276;2022-11-03T12:43:17;10.90;;;3.65;;
31978;SDS011;18502;43.574;1.276;2022-11-03T12:45:44;10.40;;;4.93;;
31978;SDS011;18502;43.574;1.276;2022-11-03T12:48:09;10.32;;;4.13;;
31978;SDS011;18502;43.574;1.276;2022-11-03T12:50:35;9.30;;;3.47;;
31978;SDS011;18502;43.574;1.276;2022-11-03T12:53:03;8.45;;;3.40;;
31978;SDS011;18502;43.574;1.276;2022-11-03T12:55:30;11.00;;;3.60;;
31978;SDS011;18502;43.574;1.276;2022-11-03T12:57:56;9.05;;;3.55;;
31978;SDS011;18502;43.574;1.276;2022-11-03T13:00:22;9.20;;;4.10;;
31978;SDS011;18502;43.574;1.276;2022-11-03T13:02:48;9.13;;;3.15;;
31978;SDS011;18502;43.574;1.276;2022-11-03T13:05:14;9.10;;;3.55;;
31978;SDS011;18502;43.574;1.276;2022-11-03T13:07:40;6.20;;;3.17;;
31978;SDS011;18502;43.574;1.276;2022-11-03T13:10:08;4.90;;;2.95;;
31978;SDS011;18502;43.574;1.276;2022-11-03T13:12:34;8.43;;;3.60;;
31978;SDS011;18502;43.574;1.276;2022-11-03T13:15:05;8.43;;;3.40;;
31978;SDS011;18502;43.574;1.276;2022-11-03T13:17:32;6.90;;;3.22;;
31978;SDS011;18502;43.574;1.276;2022-11-03T13:19:58;6.68;;;2.95;;
31978;SDS011;18502;43.574;1.276;2022-11-03T13:22:23;9.00;;;3.35;;
31978;SDS011;18502;43.574;1.276;2022-11-03T13:24:49;5.97;;;3.05;;
31978;SDS011;18502;43.574;1.276;2022-11-03T13:27:15;6.10;;;2.65;;
31978;SDS011;18502;43.574;1.276;2022-11-03T13:29:40;8.30;;;3.15;;
31978;SDS011;18502;43.574;1.276;2022-11-03T13:32:06;8.15;;;2.95;;
31978;SDS011;18502;43.574;1.276;2022-11-03T13:34:32;4.07;;;2.35;;
31978;SDS011;18502;43.574;1.276;2022-11-03T13:36:58;5.50;;;2.60;;
31978;SDS011;18502;43.574;1.276;2022-11-03T13:39:24;4.32;;;3.13;;
31978;SDS011;18502;43.574;1.276;2022-11-03T13:41:49;7.25;;;3.00;;
31978;SDS011;18502;43.574;1.276;2022-11-03T13:44:15;5.32;;;2.72;;
31978;SDS011;18502;43.574;1.276;2022-11-03T13:46:41;4.35;;;2.63;;
31978;SDS011;18502;43.574;1.276;2022-11-03T13:49:06;5.38;;;2.33;;
31978;SDS011;18502;43.574;1.276;2022-11-03T13:51:32;7.15;;;3.20;;
31978;SDS011;18502;43.574;1.276;2022-11-03T13:53:58;4.88;;;2.67;;
31978;SDS011;18502;43.574;1.276;2022-11-03T13:56:23;5.63;;;2.47;;
31978;SDS011;18502;43.574;1.276;2022-11-03T13:58:49;4.18;;;2.58;;
31978;SDS011;18502;43.574;1.276;2022-11-03T14:01:15;5.38;;;2.65;;
31978;SDS011;18502;43.574;1.276;2022-11-03T14:03:41;6.03;;;2.92;;
31978;SDS011;18502;43.574;1.276;2022-11-03T14:06:06;5.22;;;2.65;;
31978;SDS011;18502;43.574;1.276;2022-11-03T14:08:32;5.18;;;2.40;;
31978;SDS011;18502;43.574;1.276;2022-11-03T14:10:58;7.78;;;3.67;;
31978;SDS011;18502;43.574;1.276;2022-11-03T14:13:43;11.10;;;2.92;;
31978;SDS011;18502;43.574;1.276;2022-11-03T14:16:09;5.10;;;2.95;;
31978;SDS011;18502;43.574;1.276;2022-11-03T14:18:35;6.63;;;2.90;;
31978;SDS011;18502;43.574;1.276;2022-11-03T14:21:00;7.70;;;3.17;;
31978;SDS011;18502;43.574;1.276;2022-11-03T14:23:26;6.03;;;2.33;;
31978;SDS011;18502;43.574;1.276;2022-11-03T14:25:52;6.03;;;2.60;;
31978;SDS011;18502;43.574;1.276;2022-11-03T14:28:17;5.03;;;2.15;;
31978;SDS011;18502;43.574;1.276;2022-11-03T14:30:43;4.63;;;2.08;;
31978;SDS011;18502;43.574;1.276;2022-11-03T14:33:08;5.70;;;2.50;;
31978;SDS011;18502;43.574;1.276;2022-11-03T14:35:34;5.63;;;2.35;;
31978;SDS011;18502;43.574;1.276;2022-11-03T14:38:00;5.80;;;2.10;;
31978;SDS011;18502;43.574;1.276;2022-11-03T14:40:25;5.57;;;2.40;;
31978;SDS011;18502;43.574;1.276;2022-11-03T14:43:10;6.50;;;2.17;;
31978;SDS011;18502;43.574;1.276;2022-11-03T14:45:35;5.15;;;2.10;;
31978;SDS011;18502;43.574;1.276;2022-11-03T14:48:01;8.13;;;2.78;;
31978;SDS011;18502;43.574;1.276;2022-11-03T14:50:26;7.90;;;2.50;;
31978;SDS011;18502;43.574;1.276;2022-11-03T14:52:52;8.93;;;2.80;;
31978;SDS011;18502;43.574;1.276;2022-11-03T14:55:18;9.18;;;2.40;;
31978;SDS011;18502;43.574;1.276;2022-11-03T14:57:43;9.45;;;2.60;;
31978;SDS011;18502;43.574;1.276;2022-11-03T15:00:09;5.50;;;2.55;;
31978;SDS011;18502;43.574;1.276;2022-11-03T15:02:35;7.35;;;2.33;;
31978;SDS011;18502;43.574;1.276;2022-11-03T15:05:02;6.70;;;2.50;;
31978;SDS011;18502;43.574;1.276;2022-11-03T15:07:28;6.00;;;2.90;;
31978;SDS011;18502;43.574;1.276;2022-11-03T15:09:53;6.40;;;2.70;;
31978;SDS011;18502;43.574;1.276;2022-11-03T15:12:20;6.75;;;2.55;;
31978;SDS011;18502;43.574;1.276;2022-11-03T15:14:45;11.50;;;3.00;;
31978;SDS011;18502;43.574;1.276;2022-11-03T15:17:11;14.65;;;3.65;;
31978;SDS011;18502;43.574;1.276;2022-11-03T15:19:37;14.82;;;4.53;;
31978;SDS011;18502;43.574;1.276;2022-11-03T15:22:03;16.98;;;4.95;;
31978;SDS011;18502;43.574;1.276;2022-11-03T15:24:28;6.50;;;2.72;;
31978;SDS011;18502;43.574;1.276;2022-11-03T15:26:54;4.47;;;1.95;;
31978;SDS011;18502;43.574;1.276;2022-11-03T15:29:20;5.93;;;1.75;;
31978;SDS011;18502;43.574;1.276;2022-11-03T15:31:47;10.65;;;1.40;;
31978;SDS011;18502;43.574;1.276;2022-11-03T15:34:13;4.07;;;0.80;;
31978;SDS011;18502;43.574;1.276;2022-11-03T15:36:39;3.58;;;0.60;;
31978;SDS011;18502;43.574;1.276;2022-11-03T15:39:05;2.53;;;0.80;;
31978;SDS011;18502;43.574;1.276;2022-11-03T15:41:31;0.73;;;0.32;;
31978;SDS011;18502;43.574;1.276;2022-11-03T15:43:56;2.38;;;0.60;;
31978;SDS011;18502;43.574;1.276;2022-11-03T15:46:22;3.88;;;0.90;;
31978;SDS011;18502;43.574;1.276;2022-11-03T15:48:47;2.08;;;0.60;;
31978;SDS011;18502;43.574;1.276;2022-11-03T15:51:13;1.38;;;0.52;;
31978;SDS011;18502;43.574;1.276;2022-11-03T15:53:39;2.22;;;0.50;;
31978;SDS011;18502;43.574;1.276;2022-11-03T15:56:05;2.45;;;1.13;;
31978;SDS011;18502;43.574;1.276;2022-11-03T15:58:31;2.10;;;0.55;;
31978;SDS011;18502;43.574;1.276;2022-11-03T16:00:58;2.72;;;0.90;;
31978;SDS011;18502;43.574;1.276;2022-11-03T16:03:27;1.63;;;0.50;;
31978;SDS011;18502;43.574;1.276;2022-11-03T16:05:53;5.22;;;0.52;;
31978;SDS011;18502;43.574;1.276;2022-11-03T16:08:19;3.70;;;0.60;;
31978;SDS011;18502;43.574;1.276;2022-11-03T16:10:44;1.52;;;0.57;;
31978;SDS011;18502;43.574;1.276;2022-11-03T16:13:10;4.85;;;0.70;;
31978;SDS011;18502;43.574;1.276;2022-11-03T16:15:35;3.65;;;0.40;;
31978;SDS011;18502;43.574;1.276;2022-11-03T16:18:01;2.97;;;0.50;;
31978;SDS011;18502;43.574;1.276;2022-11-03T16:20:28;1.25;;;0.77;;
31978;SDS011;18502;43.574;1.276;2022-11-03T16:22:54;1.48;;;0.57;;
31978;SDS011;18502;43.574;1.276;2022-11-03T16:25:20;6.97;;;0.93;;
31978;SDS011;18502;43.574;1.276;2022-11-03T16:27:45;3.33;;;0.70;;
31978;SDS011;18502;43.574;1.276;2022-11-03T16:30:11;5.20;;;0.80;;
31978;SDS011;18502;43.574;1.276;2022-11-03T16:32:37;3.90;;;0.95;;
31978;SDS011;18502;43.574;1.276;2022-11-03T16:35:03;2.88;;;0.50;;
31978;SDS011;18502;43.574;1.276;2022-11-03T16:37:29;3.47;;;0.57;;
31978;SDS011;18502;43.574;1.276;2022-11-03T16:39:55;1.10;;;0.40;;
31978;SDS011;18502;43.574;1.276;2022-11-03T16:42:20;3.30;;;0.40;;
31978;SDS011;18502;43.574;1.276;2022-11-03T16:44:46;3.22;;;0.47;;
31978;SDS011;18502;43.574;1.276;2022-11-03T16:47:12;3.35;;;0.60;;
31978;SDS011;18502;43.574;1.276;2022-11-03T16:49:37;1.85;;;0.38;;
31978;SDS011;18502;43.574;1.276;2022-11-03T16:52:05;5.30;;;0.75;;
31978;SDS011;18502;43.574;1.276;2022-11-03T16:54:33;4.28;;;0.73;;
31978;SDS011;18502;43.574;1.276;2022-11-03T16:56:59;5.70;;;1.10;;
31978;SDS011;18502;43.574;1.276;2022-11-03T16:59:24;6.43;;;1.10;;
31978;SDS011;18502;43.574;1.276;2022-11-03T17:01:50;7.32;;;1.25;;
31978;SDS011;18502;43.574;1.276;2022-11-03T17:04:16;6.40;;;1.80;;
31978;SDS011;18502;43.574;1.276;2022-11-03T17:06:42;11.20;;;1.48;;
31978;SDS011;18502;43.574;1.276;2022-11-03T17:09:08;7.97;;;1.65;;
31978;SDS011;18502;43.574;1.276;2022-11-03T17:11:36;5.65;;;1.50;;
31978;SDS011;18502;43.574;1.276;2022-11-03T17:14:07;3.33;;;0.98;;
31978;SDS011;18502;43.574;1.276;2022-11-03T17:16:37;6.57;;;1.88;;
31978;SDS011;18502;43.574;1.276;2022-11-03T17:19:03;9.10;;;1.60;;
31978;SDS011;18502;43.574;1.276;2022-11-03T17:21:29;10.55;;;1.40;;
31978;SDS011;18502;43.574;1.276;2022-11-03T17:23:55;10.15;;;1.00;;
31978;SDS011;18502;43.574;1.276;2022-11-03T17:26:24;3.95;;;1.02;;
31978;SDS011;18502;43.574;1.276;2022-11-03T17:28:57;8.30;;;1.80;;
31978;SDS011;18502;43.574;1.276;2022-11-03T17:31:23;11.80;;;1.35;;
31978;SDS011;18502;43.574;1.276;2022-11-03T17:33:49;2.67;;;1.00;;
31978;SDS011;18502;43.574;1.276;2022-11-03T17:36:15;7.82;;;1.25;;
31978;SDS011;18502;43.574;1.276;2022-11-03T17:38:41;6.30;;;1.27;;
31978;SDS011;18502;43.574;1.276;2022-11-03T17:41:07;9.73;;;2.17;;
31978;SDS011;18502;43.574;1.276;2022-11-03T17:43:36;12.20;;;1.23;;
31978;SDS011;18502;43.574;1.276;2022-11-03T17:46:04;7.15;;;1.65;;
31978;SDS011;18502;43.574;1.276;2022-11-03T17:48:30;7.55;;;2.13;;
31978;SDS011;18502;43.574;1.276;2022-11-03T17:50:56;13.80;;;3.35;;
31978;SDS011;18502;43.574;1.276;2022-11-03T17:53:23;12.77;;;4.18;;
31978;SDS011;18502;43.574;1.276;2022-11-03T17:55:55;9.68;;;2.20;;
31978;SDS011;18502;43.574;1.276;2022-11-03T17:58:25;4.57;;;1.10;;
31978;SDS011;18502;43.574;1.276;2022-11-03T18:00:57;10.70;;;1.75;;
31978;SDS011;18502;43.574;1.276;2022-11-03T18:03:24;16.02;;;2.80;;
31978;SDS011;18502;43.574;1.276;2022-11-03T18:05:50;4.57;;;1.58;;
31978;SDS011;18502;43.574;1.276;2022-11-03T18:08:16;6.80;;;1.70;;
31978;SDS011;18502;43.574;1.276;2022-11-03T18:10:43;12.95;;;1.77;;
31978;SDS011;18502;43.574;1.276;2022-11-03T18:13:17;9.98;;;2.70;;
31978;SDS011;18502;43.574;1.276;2022-11-03T18:15:58;9.43;;;2.85;;
31978;SDS011;18502;43.574;1.276;2022-11-03T18:18:31;10.38;;;2.42;;
31978;SDS011;18502;43.574;1.276;2022-11-03T18:21:01;6.28;;;1.38;;
31978;SDS011;18502;43.574;1.276;2022-11-03T18:23:31;10.65;;;1.70;;
31978;SDS011;18502;43.574;1.276;2022-11-03T18:28:25;11.60;;;1.75;;
31978;SDS011;18502;43.574;1.276;2022-11-03T18:30:51;11.23;;;1.90;;
31978;SDS011;18502;43.574;1.276;2022-11-03T18:33:51;9.90;;;2.05;;
31978;SDS011;18502;43.574;1.276;2022-11-03T18:36:10;7.90;;;1.20;;
31978;SDS011;18502;43.574;1.276;2022-11-03T18:38:39;8.98;;;1.80;;
31978;SDS011;18502;43.574;1.276;2022-11-03T18:41:13;7.72;;;1.67;;
31978;SDS011;18502;43.574;1.276;2022-11-03T18:43:58;8.23;;;1.65;;
31978;SDS011;18502;43.574;1.276;2022-11-03T18:46:25;4.57;;;1.15;;
31978;SDS011;18502;43.574;1.276;2022-11-03T18:48:51;6.80;;;1.52;;
31978;SDS011;18502;43.574;1.276;2022-11-03T18:51:17;9.18;;;1.50;;
31978;SDS011;18502;43.574;1.276;2022-11-03T18:53:42;11.63;;;2.22;;
31978;SDS011;18502;43.574;1.276;2022-11-03T18:56:08;10.15;;;1.73;;
31978;SDS011;18502;43.574;1.276;2022-11-03T18:58:36;9.30;;;1.80;;
31978;SDS011;18502;43.574;1.276;2022-11-03T19:01:02;8.43;;;1.77;;
31978;SDS011;18502;43.574;1.276;2022-11-03T19:03:28;9.05;;;1.67;;
31978;SDS011;18502;43.574;1.276;2022-11-03T19:05:54;7.72;;;1.50;;
31978;SDS011;18502;43.574;1.276;2022-11-03T19:08:24;12.85;;;1.98;;
31978;SDS011;18502;43.574;1.276;2022-11-03T19:10:55;11.75;;;2.58;;
31978;SDS011;18502;43.574;1.276;2022-11-03T19:13:37;7.47;;;1.42;;
31978;SDS011;18502;43.574;1.276;2022-11-03T19:16:18;11.48;;;1.45;;
31978;SDS011;18502;43.574;1.276;2022-11-03T19:18:46;4.60;;;1.38;;
31978;SDS011;18502;43.574;1.276;2022-11-03T19:21:16;8.98;;;2.08;;
31978;SDS011;18502;43.574;1.276;2022-11-03T19:23:45;11.55;;;2.38;;
31978;SDS011;18502;43.574;1.276;2022-11-03T19:26:27;4.75;;;1.65;;
31978;SDS011;18502;43.574;1.276;2022-11-03T19:29:01;7.53;;;1.25;;
31978;SDS011;18502;43.574;1.276;2022-11-03T19:34:10;6.50;;;1.10;;
31978;SDS011;18502;43.574;1.276;2022-11-03T19:36:39;12.82;;;2.35;;
31978;SDS011;18502;43.574;1.276;2022-11-03T19:39:08;13.48;;;3.00;;
31978;SDS011;18502;43.574;1.276;2022-11-03T19:41:38;11.60;;;1.40;;
31978;SDS011;18502;43.574;1.276;2022-11-03T19:44:23;9.95;;;1.65;;
31978;SDS011;18502;43.574;1.276;2022-11-03T19:46:49;10.43;;;1.30;;
31978;SDS011;18502;43.574;1.276;2022-11-03T19:49:17;8.27;;;1.67;;
31978;SDS011;18502;43.574;1.276;2022-11-03T19:51:42;4.18;;;1.10;;
31978;SDS011;18502;43.574;1.276;2022-11-03T19:54:15;7.07;;;1.92;;
31978;SDS011;18502;43.574;1.276;2022-11-03T19:56:42;9.50;;;1.15;;
31978;SDS011;18502;43.574;1.276;2022-11-03T19:59:11;7.15;;;1.17;;
31978;SDS011;18502;43.574;1.276;2022-11-03T20:01:38;10.77;;;1.35;;
31978;SDS011;18502;43.574;1.276;2022-11-03T20:04:03;13.85;;;1.58;;
31978;SDS011;18502;43.574;1.276;2022-11-03T20:06:30;8.80;;;1.13;;
31978;SDS011;18502;43.574;1.276;2022-11-03T20:08:58;8.23;;;1.35;;
31978;SDS011;18502;43.574;1.276;2022-11-03T20:11:25;4.55;;;1.42;;
31978;SDS011;18502;43.574;1.276;2022-11-03T20:13:51;10.57;;;1.98;;
31978;SDS011;18502;43.574;1.276;2022-11-03T20:16:18;8.65;;;1.38;;
31978;SDS011;18502;43.574;1.276;2022-11-03T20:18:44;10.45;;;1.98;;
31978;SDS011;18502;43.574;1.276;2022-11-03T20:21:15;8.27;;;2.53;;
31978;SDS011;18502;43.574;1.276;2022-11-03T20:23:44;13.13;;;2.85;;
31978;SDS011;18502;43.574;1.276;2022-11-03T20:26:16;9.88;;;1.80;;
31978;SDS011;18502;43.574;1.276;2022-11-03T20:28:46;8.60;;;2.15;;
31978;SDS011;18502;43.574;1.276;2022-11-03T20:31:13;10.02;;;1.67;;
31978;SDS011;18502;43.574;1.276;2022-11-03T20:33:40;14.23;;;2.97;;
31978;SDS011;18502;43.574;1.276;2022-11-03T20:36:10;10.82;;;1.95;;
31978;SDS011;18502;43.574;1.276;2022-11-03T20:38:39;9.73;;;1.23;;
31978;SDS011;18502;43.574;1.276;2022-11-03T20:41:05;10.05;;;1.95;;
31978;SDS011;18502;43.574;1.276;2022-11-03T20:43:38;7.07;;;1.58;;
31978;SDS011;18502;43.574;1.276;2022-11-03T20:48:53;7.55;;;1.70;;
31978;SDS011;18502;43.574;1.276;2022-11-03T20:51:20;8.43;;;1.98;;
31978;SDS011;18502;43.574;1.276;2022-11-03T20:53:47;4.72;;;1.17;;
31978;SDS011;18502;43.574;1.276;2022-11-03T20:56:14;8.77;;;2.38;;
31978;SDS011;18502;43.574;1.276;2022-11-03T20:58:42;12.57;;;1.85;;
31978;SDS011;18502;43.574;1.276;2022-11-03T21:01:12;13.07;;;2.55;;
31978;SDS011;18502;43.574;1.276;2022-11-03T21:03:57;9.50;;;1.50;;
31978;SDS011;18502;43.574;1.276;2022-11-03T21:06:25;13.10;;;2.45;;
31978;SDS011;18502;43.574;1.276;2022-11-03T21:08:51;13.45;;;1.60;;
31978;SDS011;18502;43.574;1.276;2022-11-03T21:11:18;6.07;;;1.50;;
31978;SDS011;18502;43.574;1.276;2022-11-03T21:13:51;11.55;;;2.22;;
31978;SDS011;18502;43.574;1.276;2022-11-03T21:16:25;8.68;;;1.80;;
31978;SDS011;18502;43.574;1.276;2022-11-03T21:19:29;9.45;;;1.80;;
31978;SDS011;18502;43.574;1.276;2022-11-03T21:22:15;13.43;;;2.80;;
31978;SDS011;18502;43.574;1.276;2022-11-03T21:24:45;12.35;;;2.15;;
31978;SDS011;18502;43.574;1.276;2022-11-03T21:27:12;12.60;;;2.35;;
31978;SDS011;18502;43.574;1.276;2022-11-03T21:29:39;10.73;;;2.15;;
31978;SDS011;18502;43.574;1.276;2022-11-03T21:32:05;6.82;;;1.90;;
31978;SDS011;18502;43.574;1.276;2022-11-03T21:34:34;14.23;;;2.40;;
31978;SDS011;18502;43.574;1.276;2022-11-03T21:37:00;10.80;;;2.40;;
31978;SDS011;18502;43.574;1.276;2022-11-03T21:39:26;10.60;;;2.60;;
31978;SDS011;18502;43.574;1.276;2022-11-03T21:41:53;7.53;;;1.75;;
31978;SDS011;18502;43.574;1.276;2022-11-03T21:44:37;11.68;;;1.55;;
31978;SDS011;18502;43.574;1.276;2022-11-03T21:47:03;11.65;;;2.78;;
31978;SDS011;18502;43.574;1.276;2022-11-03T21:49:29;8.73;;;2.13;;
31978;SDS011;18502;43.574;1.276;2022-11-03T21:52:14;14.13;;;1.67;;
31978;SDS011;18502;43.574;1.276;2022-11-03T21:54:41;11.07;;;2.63;;
31978;SDS011;18502;43.574;1.276;2022-11-03T21:57:09;9.98;;;1.70;;
31978;SDS011;18502;43.574;1.276;2022-11-03T21:59:36;7.18;;;1.80;;
31978;SDS011;18502;43.574;1.276;2022-11-03T22:02:02;12.40;;;2.10;;
31978;SDS011;18502;43.574;1.276;2022-11-03T22:04:29;13.15;;;1.90;;
31978;SDS011;18502;43.574;1.276;2022-11-03T22:06:58;7.68;;;1.73;;
31978;SDS011;18502;43.574;1.276;2022-11-03T22:09:24;10.15;;;1.63;;
31978;SDS011;18502;43.574;1.276;2022-11-03T22:11:51;15.40;;;2.03;;
31978;SDS011;18502;43.574;1.276;2022-11-03T22:14:18;8.65;;;1.42;;
